Time;durP1;ratioP1;P1;durP2;ratioP2;P2;SDS_P1;SDS_P2;PMS_P1;PMS_P2;Temp;Humidity;BMP_temperature;BMP_pressure;BME280_temperature;BME280_humidity;BME280_pressure;Samples;Min_cycle;Max_cycle;Signal;HPM_P1;HPM_P2
2023/04/16 00:00:42;;;;;;;6.53;2.47;;;;;;;-150.27;100.00;61272.81;5033539;29;20029;-76
2023/04/16 00:03:14;;;;;;;14.00;4.27;;;;;;;-150.27;100.00;61272.81;5052614;29;20056;-76
2023/04/16 00:05:46;;;;;;;6.93;1.93;;;;;;;-150.27;100.00;61272.81;5042311;29;20459;-76
2023/04/16 00:08:17;;;;;;;15.37;3.30;;;;;;;-150.27;100.00;61272.81;5034065;29;20036;-78
2023/04/16 00:10:49;;;;;;;10.23;2.53;;;;;;;-150.27;100.00;61272.81;5052939;29;20029;-77
2023/04/16 00:13:21;;;;;;;9.40;2.93;;;;;;;-150.27;100.00;61272.81;5043670;29;20046;-76
2023/04/16 00:15:52;;;;;;;12.87;2.73;;;;;;;-150.27;100.00;61272.81;5031367;29;20037;-76
2023/04/16 00:18:24;;;;;;;15.60;3.37;;;;;;;-150.27;100.00;61272.81;5033924;29;20090;-76
2023/04/16 00:20:55;;;;;;;9.73;3.10;;;;;;;-150.27;100.00;61272.81;5034519;29;20026;-76
2023/04/16 00:23:26;;;;;;;18.43;3.60;;;;;;;-150.27;100.00;61272.81;5033806;29;20021;-76
2023/04/16 00:25:58;;;;;;;9.60;2.40;;;;;;;-150.27;100.00;61272.81;5034100;29;20034;-76
2023/04/16 00:28:30;;;;;;;14.33;4.07;;;;;;;-150.27;100.00;61272.81;5032888;29;20399;-76
2023/04/16 00:31:01;;;;;;;9.13;2.60;;;;;;;-150.27;100.00;61272.81;5034061;29;20033;-75
2023/04/16 00:33:32;;;;;;;9.43;2.97;;;;;;;-150.27;100.00;61272.81;5035139;29;20116;-75
2023/04/16 00:36:04;;;;;;;10.03;3.30;;;;;;;-150.27;100.00;61272.81;5033204;29;20452;-75
2023/04/16 00:38:37;;;;;;;8.40;2.70;;;;;;;-150.27;100.00;61272.81;5033332;29;20021;-75
2023/04/16 00:41:08;;;;;;;13.33;3.40;;;;;;;-150.27;100.00;61272.81;5033737;29;20506;-75
2023/04/16 00:43:40;;;;;;;9.73;2.67;;;;;;;-150.27;100.00;61272.81;5032220;29;20118;-74
2023/04/16 00:46:11;;;;;;;7.43;2.93;;;;;;;-150.27;100.00;61272.81;5032640;29;20036;-74
2023/04/16 00:48:43;;;;;;;7.63;2.40;;;;;;;-150.27;100.00;61272.81;5032329;29;20848;-74
2023/04/16 00:51:15;;;;;;;12.37;4.17;;;;;;;-150.27;100.00;61272.81;5033867;29;20026;-75
2023/04/16 00:53:49;;;;;;;9.47;3.23;;;;;;;-150.27;100.00;61272.81;5033748;29;20469;-75
2023/04/16 00:56:23;;;;;;;12.83;3.77;;;;;;;-150.27;100.00;61272.81;5033119;29;20442;-75
2023/04/16 00:58:57;;;;;;;10.68;3.53;;;;;;;-150.27;100.00;61272.81;5032794;29;20034;-75
2023/04/16 01:01:29;;;;;;;11.93;3.22;;;;;;;-150.27;100.00;61272.81;5033311;29;20034;-75
2023/04/16 01:04:00;;;;;;;12.93;3.43;;;;;;;-150.27;100.00;61272.81;5033756;29;20020;-73
2023/04/16 01:06:31;;;;;;;13.30;4.17;;;;;;;-150.27;100.00;61272.81;5033464;29;20033;-74
2023/04/16 01:09:04;;;;;;;12.60;3.50;;;;;;;-150.27;100.00;61272.81;5031568;29;20371;-74
2023/04/16 01:11:36;;;;;;;10.40;3.27;;;;;;;-150.27;100.00;61272.81;5033472;29;20045;-74
2023/04/16 01:14:08;;;;;;;11.40;3.80;;;;;;;-150.27;100.00;61272.81;5044449;29;20037;-74
2023/04/16 01:16:39;;;;;;;7.70;2.97;;;;;;;-150.27;100.00;61272.81;5035726;29;20028;-74
2023/04/16 01:19:10;;;;;;;9.47;3.40;;;;;;;-150.27;100.00;61272.81;5052915;29;20021;-74
2023/04/16 01:21:43;;;;;;;6.97;2.90;;;;;;;-150.27;100.00;61272.81;5052398;29;20026;-74
2023/04/16 01:24:14;;;;;;;7.87;2.90;;;;;;;-150.27;100.00;61272.81;5052238;29;20033;-74
2023/04/16 01:26:46;;;;;;;10.67;3.07;;;;;;;-150.27;100.00;61272.81;5052255;29;20374;-75
2023/04/16 01:29:17;;;;;;;9.53;3.50;;;;;;;-150.27;100.00;61272.81;5051656;29;20064;-74
2023/04/16 01:31:48;;;;;;;13.53;4.03;;;;;;;-150.27;100.00;61272.81;5053945;29;20036;-74
2023/04/16 01:34:20;;;;;;;9.00;3.53;;;;;;;-150.27;100.00;61272.81;5051964;29;20033;-74
2023/04/16 01:36:51;;;;;;;9.97;3.17;;;;;;;-150.27;100.00;61272.81;5052150;29;20061;-75
2023/04/16 01:39:22;;;;;;;13.10;3.67;;;;;;;-150.27;100.00;61272.81;5052028;29;20643;-75
2023/04/16 01:41:54;;;;;;;12.93;4.10;;;;;;;-150.27;100.00;61272.81;5052328;29;20406;-76
2023/04/16 01:44:25;;;;;;;10.63;3.73;;;;;;;-150.27;100.00;61272.81;5051544;29;20151;-73
2023/04/16 01:46:56;;;;;;;11.27;4.07;;;;;;;-150.27;100.00;61272.81;5053585;29;20029;-75
2023/04/16 01:49:28;;;;;;;10.23;4.93;;;;;;;-150.27;100.00;61272.81;5055500;29;20927;-74
2023/04/16 01:51:59;;;;;;;12.27;3.70;;;;;;;-150.27;100.00;61272.81;5055398;29;20021;-75
2023/04/16 01:54:31;;;;;;;8.67;3.23;;;;;;;-150.27;100.00;61272.81;5055374;29;20112;-75
2023/04/16 01:57:02;;;;;;;8.03;3.67;;;;;;;-150.27;100.00;61272.81;5056019;29;20060;-75
2023/04/16 01:59:33;;;;;;;9.00;3.60;;;;;;;-150.27;100.00;61272.81;5055149;29;20479;-75
2023/04/16 02:02:11;;;;;;;10.57;4.53;;;;;;;-150.27;100.00;61272.81;5056164;29;20082;-76
2023/04/16 02:04:44;;;;;;;9.63;4.40;;;;;;;-150.27;100.00;61272.81;5055995;29;20545;-76
2023/04/16 02:07:15;;;;;;;9.37;4.27;;;;;;;-150.27;100.00;61272.81;5055329;29;20040;-75
2023/04/16 02:09:46;;;;;;;9.17;4.23;;;;;;;-150.27;100.00;61272.81;5056322;29;20033;-75
2023/04/16 02:12:18;;;;;;;7.90;4.00;;;;;;;-150.27;100.00;61272.81;5055741;29;20061;-76
2023/04/16 02:14:49;;;;;;;11.37;4.27;;;;;;;-150.27;100.00;61272.81;5055512;29;20094;-75
2023/04/16 02:17:21;;;;;;;11.93;4.23;;;;;;;-150.27;100.00;61272.81;5055891;29;20112;-74
2023/04/16 02:19:52;;;;;;;8.03;4.03;;;;;;;-150.27;100.00;61272.81;5055143;29;20046;-75
2023/04/16 02:22:25;;;;;;;13.57;4.70;;;;;;;-150.27;100.00;61272.81;5055185;29;20498;-74
2023/04/16 02:24:56;;;;;;;8.00;4.30;;;;;;;-150.27;100.00;61272.81;5055233;29;20025;-75
2023/04/16 02:27:28;;;;;;;9.93;4.70;;;;;;;-150.27;100.00;61272.81;5055020;29;20040;-74
2023/04/16 02:29:59;;;;;;;11.53;4.40;;;;;;;-150.27;100.00;61272.81;5054246;29;20029;-75
2023/04/16 02:32:31;;;;;;;11.50;4.23;;;;;;;-150.27;100.00;61272.81;5054637;29;20037;-75
2023/04/16 02:35:02;;;;;;;9.93;4.40;;;;;;;-150.27;100.00;61272.81;5054917;29;20037;-74
2023/04/16 02:37:34;;;;;;;9.80;4.90;;;;;;;-150.27;100.00;61272.81;5054808;29;20033;-74
2023/04/16 02:40:06;;;;;;;9.30;4.37;;;;;;;-150.27;100.00;61272.81;5038153;29;20033;-75
2023/04/16 02:42:37;;;;;;;9.70;5.03;;;;;;;-150.27;100.00;61272.81;5054661;29;20034;-75
2023/04/16 02:45:10;;;;;;;9.87;4.30;;;;;;;-150.27;100.00;61272.81;5053815;29;20030;-75
2023/04/16 02:47:41;;;;;;;10.23;4.50;;;;;;;-150.27;100.00;61272.81;5038531;29;20548;-74
2023/04/16 02:50:13;;;;;;;12.27;4.37;;;;;;;-150.27;100.00;61272.81;5054226;29;20116;-75
2023/04/16 02:52:44;;;;;;;13.20;4.67;;;;;;;-150.27;100.00;61272.81;5054493;29;20086;-74
2023/04/16 02:55:16;;;;;;;9.80;4.57;;;;;;;-150.27;100.00;61272.81;5054501;29;20063;-75
2023/04/16 02:57:47;;;;;;;11.43;4.50;;;;;;;-150.27;100.00;61272.81;5037526;29;20044;-74
2023/04/16 03:00:18;;;;;;;8.53;4.40;;;;;;;-150.27;100.00;61272.81;5053290;29;20117;-75
2023/04/16 03:02:50;;;;;;;11.87;5.33;;;;;;;-150.27;100.00;61272.81;5054490;29;20041;-75
2023/04/16 03:05:21;;;;;;;7.40;4.03;;;;;;;-150.27;100.00;61272.81;5053969;29;20065;-74
2023/04/16 03:07:55;;;;;;;10.00;3.80;;;;;;;-150.27;100.00;61272.81;5054262;29;20575;-74
2023/04/16 03:10:27;;;;;;;10.93;4.50;;;;;;;-150.27;100.00;61272.81;5054178;29;20368;-75
2023/04/16 03:12:58;;;;;;;10.57;4.57;;;;;;;-150.27;100.00;61272.81;5053129;29;20040;-75
2023/04/16 03:15:30;;;;;;;10.27;4.20;;;;;;;-150.27;100.00;61272.81;5053963;29;20049;-76
2023/04/16 03:18:01;;;;;;;9.33;5.10;;;;;;;-150.27;100.00;61272.81;5053235;29;20063;-76
2023/04/16 03:20:33;;;;;;;8.53;4.67;;;;;;;-150.27;100.00;61272.81;5051575;29;20041;-76
2023/04/16 03:23:04;;;;;;;8.73;4.67;;;;;;;-150.27;100.00;61272.81;5052756;29;20066;-75
2023/04/16 03:25:35;;;;;;;10.13;4.53;;;;;;;-150.27;100.00;61272.81;5053896;29;20486;-75
2023/04/16 03:28:09;;;;;;;8.70;4.60;;;;;;;-150.27;100.00;61272.81;5053584;29;20077;-75
2023/04/16 03:30:40;;;;;;;10.23;5.00;;;;;;;-150.27;100.00;61272.81;5053801;29;20029;-76
2023/04/16 03:33:12;;;;;;;8.73;5.10;;;;;;;-150.27;100.00;61272.81;5038177;29;20101;-75
2023/04/16 03:35:43;;;;;;;9.90;5.37;;;;;;;-150.27;100.00;61272.81;5054154;29;20653;-75
2023/04/16 03:38:14;;;;;;;9.13;5.70;;;;;;;-150.27;100.00;61272.81;5053388;29;20030;-75
2023/04/16 03:40:46;;;;;;;10.10;5.80;;;;;;;-150.27;100.00;61272.81;5053904;29;20030;-75
2023/04/16 03:43:17;;;;;;;11.77;6.27;;;;;;;-150.27;100.00;61272.81;5052028;29;20119;-75
2023/04/16 03:45:48;;;;;;;8.63;5.37;;;;;;;-150.27;100.00;61272.81;5053975;29;20037;-76
2023/04/16 03:48:20;;;;;;;8.47;5.83;;;;;;;-150.27;100.00;61272.81;5053931;29;20052;-75
2023/04/16 03:50:51;;;;;;;12.47;6.37;;;;;;;-150.27;100.00;61272.81;5053092;29;20438;-74
2023/04/16 03:53:22;;;;;;;12.87;6.77;;;;;;;-150.27;100.00;61272.81;5053934;29;20025;-74
2023/04/16 03:55:54;;;;;;;12.37;6.97;;;;;;;-150.27;100.00;61272.81;5053624;29;20121;-75
2023/04/16 03:58:26;;;;;;;10.90;6.73;;;;;;;-150.27;100.00;61272.81;5052877;29;20033;-75
2023/04/16 04:00:58;;;;;;;10.87;7.17;;;;;;;-150.27;100.00;61272.81;5053779;29;20479;-75
2023/04/16 04:03:29;;;;;;;14.43;8.40;;;;;;;-150.27;100.00;61272.81;5053215;29;20026;-74
2023/04/16 04:06:00;;;;;;;13.67;8.77;;;;;;;-150.27;100.00;61272.81;5053802;29;20030;-75
2023/04/16 04:08:33;;;;;;;15.80;8.47;;;;;;;-150.27;100.00;61272.81;5053333;29;20064;-74
2023/04/16 04:11:04;;;;;;;11.97;8.37;;;;;;;-150.27;100.00;61272.81;5053574;29;20524;-74
2023/04/16 04:13:35;;;;;;;15.70;8.83;;;;;;;-150.27;100.00;61272.81;5052378;29;20056;-75
2023/04/16 04:16:07;;;;;;;12.10;8.00;;;;;;;-150.27;100.00;61272.81;5053227;29;20033;-75
2023/04/16 04:18:38;;;;;;;12.07;8.70;;;;;;;-150.27;100.00;61272.81;5052987;29;20035;-74
2023/04/16 04:21:09;;;;;;;14.17;9.77;;;;;;;-150.27;100.00;61272.81;5053050;29;20033;-74
2023/04/16 04:23:41;;;;;;;14.53;9.03;;;;;;;-150.27;100.00;61272.81;5052952;29;20021;-75
2023/04/16 04:26:13;;;;;;;14.17;9.40;;;;;;;-150.27;100.00;61272.81;5053209;29;20041;-75
2023/04/16 04:28:44;;;;;;;13.03;8.70;;;;;;;-150.27;100.00;61272.81;5052527;29;20044;-74
2023/04/16 04:31:15;;;;;;;11.60;7.57;;;;;;;-150.27;100.00;61272.81;5053152;29;20036;-76
2023/04/16 04:33:47;;;;;;;13.50;8.30;;;;;;;-150.27;100.00;61272.81;5053337;29;20033;-76
2023/04/16 04:36:18;;;;;;;14.60;7.83;;;;;;;-150.27;100.00;61272.81;5052565;29;20060;-76
2023/04/16 04:38:49;;;;;;;11.90;7.73;;;;;;;-150.27;100.00;61272.81;5053324;29;20061;-76
2023/04/16 04:41:21;;;;;;;11.33;8.57;;;;;;;-150.27;100.00;61272.81;5036308;29;20029;-76
2023/04/16 04:43:52;;;;;;;14.17;9.67;;;;;;;-150.27;100.00;61272.81;5052212;29;20112;-76
2023/04/16 04:46:23;;;;;;;12.57;7.67;;;;;;;-150.27;100.00;61272.81;5052748;29;20077;-76
2023/04/16 04:48:55;;;;;;;15.67;8.80;;;;;;;-150.27;100.00;61272.81;5052664;29;20514;-76
2023/04/16 04:51:26;;;;;;;13.67;8.17;;;;;;;-150.27;100.00;61272.81;5053486;29;20029;-75
2023/04/16 04:53:58;;;;;;;12.90;7.97;;;;;;;-150.27;100.00;61272.81;5053242;29;20032;-75
2023/04/16 04:56:29;;;;;;;11.03;8.50;;;;;;;-150.27;100.00;61272.81;5052971;29;20052;-76
2023/04/16 04:59:00;;;;;;;17.37;8.80;;;;;;;-150.27;100.00;61272.81;5052378;29;20092;-75
2023/04/16 05:01:32;;;;;;;14.93;8.37;;;;;;;-150.27;100.00;61272.81;5042073;29;20121;-74
2023/04/16 05:04:03;;;;;;;17.50;9.47;;;;;;;-150.27;100.00;61272.81;5034028;29;20030;-74
2023/04/16 05:06:35;;;;;;;16.50;9.23;;;;;;;-150.27;100.00;61272.81;5036615;29;20030;-74
2023/04/16 05:09:10;;;;;;;13.60;9.07;;;;;;;-150.27;100.00;61272.81;5033679;29;20044;-75
2023/04/16 05:11:41;;;;;;;17.43;9.10;;;;;;;-150.27;100.00;61272.81;5033834;29;20504;-74
2023/04/16 05:14:13;;;;;;;18.10;9.07;;;;;;;-150.27;100.00;61272.81;5046656;29;20049;-75
2023/04/16 05:16:44;;;;;;;13.77;8.53;;;;;;;-150.27;100.00;61272.81;5043918;29;20037;-75
2023/04/16 05:19:16;;;;;;;19.90;9.87;;;;;;;-150.27;100.00;61272.81;5052240;29;20117;-75
2023/04/16 05:21:47;;;;;;;16.00;8.93;;;;;;;-150.27;100.00;61272.81;5053971;29;20474;-74
2023/04/16 05:24:19;;;;;;;18.33;9.03;;;;;;;-150.27;100.00;61272.81;5039810;29;20077;-75
2023/04/16 05:26:50;;;;;;;13.97;8.60;;;;;;;-150.27;100.00;61272.81;5051886;29;20086;-74
2023/04/16 05:29:21;;;;;;;15.33;8.70;;;;;;;-150.27;100.00;61272.81;5039066;29;20068;-75
2023/04/16 05:31:53;;;;;;;17.27;8.30;;;;;;;-150.27;100.00;61272.81;5049040;29;20026;-75
2023/04/16 05:34:24;;;;;;;16.93;9.27;;;;;;;-150.27;100.00;61272.81;5036623;29;20113;-75
2023/04/16 05:36:55;;;;;;;17.47;9.10;;;;;;;-150.27;100.00;61272.81;5049062;29;20041;-75
2023/04/16 05:39:28;;;;;;;16.40;8.80;;;;;;;-150.27;100.00;61272.81;5039533;29;20475;-75
2023/04/16 05:41:59;;;;;;;17.87;8.40;;;;;;;-150.27;100.00;61272.81;5048875;29;20472;-74
2023/04/16 05:44:30;;;;;;;14.87;8.00;;;;;;;-150.27;100.00;61272.81;5039465;29;20038;-75
2023/04/16 05:47:01;;;;;;;19.87;9.33;;;;;;;-150.27;100.00;61272.81;5049700;29;20585;-75
2023/04/16 05:49:33;;;;;;;13.43;8.10;;;;;;;-150.27;100.00;61272.81;5056001;29;20056;-75
2023/04/16 05:52:06;;;;;;;15.03;8.43;;;;;;;-150.27;100.00;61272.81;5054315;29;20058;-75
2023/04/16 05:54:37;;;;;;;13.77;7.53;;;;;;;-150.27;100.00;61272.81;5038481;29;20498;-74
2023/04/16 05:57:08;;;;;;;16.10;9.57;;;;;;;-150.27;100.00;61272.81;5049673;29;20078;-74
2023/04/16 05:59:41;;;;;;;19.57;9.80;;;;;;;-150.27;100.00;61272.81;5053701;29;20053;-75
2023/04/16 06:02:13;;;;;;;15.97;8.83;;;;;;;-150.27;100.00;61272.81;5043141;29;20341;-75
2023/04/16 06:04:44;;;;;;;16.77;9.30;;;;;;;-150.27;100.00;61272.81;5036971;29;20030;-75
2023/04/16 06:07:15;;;;;;;17.30;8.80;;;;;;;-150.27;100.00;61272.81;5049537;29;20041;-75
2023/04/16 06:09:47;;;;;;;16.40;9.20;;;;;;;-150.27;100.00;61272.81;5055822;29;20041;-74
2023/04/16 06:12:18;;;;;;;19.03;10.03;;;;;;;-150.27;100.00;61272.81;5055390;29;20048;-75
2023/04/16 06:14:49;;;;;;;14.10;8.33;;;;;;;-150.27;100.00;61272.81;5053906;29;20084;-74
2023/04/16 06:17:21;;;;;;;14.80;8.57;;;;;;;-150.27;100.00;61272.81;5050154;29;20094;-74
2023/04/16 06:19:52;;;;;;;12.37;9.50;;;;;;;-150.27;100.00;61272.81;5046485;29;20032;-74
2023/04/16 06:22:24;;;;;;;15.30;10.03;;;;;;;-150.27;100.00;61272.81;5053932;29;20041;-74
2023/04/16 06:24:55;;;;;;;19.70;10.53;;;;;;;-150.27;100.00;61272.81;5041213;29;20073;-75
2023/04/16 06:27:27;;;;;;;20.53;11.03;;;;;;;-150.27;100.00;61272.81;5052437;29;20037;-75
2023/04/16 06:29:58;;;;;;;16.93;9.73;;;;;;;-150.27;100.00;61272.81;5041655;29;20025;-76
2023/04/16 06:32:30;;;;;;;18.13;9.83;;;;;;;-150.27;100.00;61272.81;5051406;29;20046;-75
2023/04/16 06:35:01;;;;;;;18.80;10.47;;;;;;;-150.27;100.00;61272.81;5035661;29;20026;-75
2023/04/16 06:37:32;;;;;;;14.67;9.23;;;;;;;-150.27;100.00;61272.81;5036143;29;20428;-76
2023/04/16 06:40:04;;;;;;;18.33;10.60;;;;;;;-150.27;100.00;61272.81;5036411;29;20040;-76
2023/04/16 06:42:35;;;;;;;20.13;10.57;;;;;;;-150.27;100.00;61272.81;5034862;29;20033;-76
2023/04/16 06:45:07;;;;;;;17.63;9.27;;;;;;;-150.27;100.00;61272.81;5041734;29;20419;-75
2023/04/16 06:47:39;;;;;;;19.53;10.00;;;;;;;-150.27;100.00;61272.81;5037876;29;20033;-76
2023/04/16 06:50:10;;;;;;;16.93;9.73;;;;;;;-150.27;100.00;61272.81;5055414;29;20550;-76
2023/04/16 06:52:42;;;;;;;14.93;10.33;;;;;;;-150.27;100.00;61272.81;5055359;29;20026;-75
2023/04/16 06:55:13;;;;;;;17.90;8.83;;;;;;;-150.27;100.00;61272.81;5054846;29;20041;-76
2023/04/16 06:57:44;;;;;;;17.70;10.07;;;;;;;-150.27;100.00;61272.81;5054227;29;20029;-75
2023/04/16 07:00:16;;;;;;;17.23;9.60;;;;;;;-150.27;100.00;61272.81;5038371;29;20025;-75
2023/04/16 07:02:47;;;;;;;17.43;10.03;;;;;;;-150.27;100.00;61272.81;5056234;29;20064;-75
2023/04/16 07:05:18;;;;;;;14.90;9.27;;;;;;;-150.27;100.00;61272.81;5055864;29;20072;-73
2023/04/16 07:07:50;;;;;;;19.60;10.23;;;;;;;-150.27;100.00;61272.81;5055515;29;20104;-73
2023/04/16 07:10:21;;;;;;;20.70;9.97;;;;;;;-150.27;100.00;61272.81;5055517;29;20054;-74
2023/04/16 07:12:52;;;;;;;17.20;10.07;;;;;;;-150.27;100.00;61272.81;5054754;29;20068;-74
2023/04/16 07:15:24;;;;;;;17.90;9.67;;;;;;;-150.27;100.00;61272.81;5056710;29;20082;-74
2023/04/16 07:17:55;;;;;;;18.63;10.70;;;;;;;-150.27;100.00;61272.81;5056248;29;20025;-74
2023/04/16 07:20:28;;;;;;;19.93;11.13;;;;;;;-150.27;100.00;61272.81;5056954;29;20550;-74
2023/04/16 07:23:00;;;;;;;21.10;11.67;;;;;;;-150.27;100.00;61272.81;5042514;29;20030;-74
2023/04/16 07:25:32;;;;;;;20.93;12.33;;;;;;;-150.27;100.00;61272.81;5038818;29;20029;-74
2023/04/16 07:28:03;;;;;;;20.87;12.37;;;;;;;-150.27;100.00;61272.81;5039295;29;20104;-72
2023/04/16 07:30:35;;;;;;;21.43;12.47;;;;;;;-150.27;100.00;61272.81;5049511;29;20038;-76
2023/04/16 07:33:06;;;;;;;23.33;12.67;;;;;;;-150.27;100.00;61272.81;5037591;29;20057;-73
2023/04/16 07:35:38;;;;;;;21.23;12.77;;;;;;;-150.27;100.00;61272.81;5041699;29;20038;-74
2023/04/16 07:38:09;;;;;;;22.63;12.87;;;;;;;-150.27;100.00;61272.81;5032662;29;20097;-75
2023/04/16 07:40:41;;;;;;;26.20;13.00;;;;;;;-150.27;100.00;61272.81;5047436;29;20029;-74
2023/04/16 07:43:14;;;;;;;21.30;12.63;;;;;;;-150.27;100.00;61272.81;5039860;29;20037;-74
2023/04/16 07:45:45;;;;;;;21.47;12.03;;;;;;;-150.27;100.00;61272.81;5040927;29;20519;-74
2023/04/16 07:48:16;;;;;;;24.73;14.27;;;;;;;-150.27;100.00;61272.81;5041182;29;20162;-74
2023/04/16 07:50:49;;;;;;;23.63;13.70;;;;;;;-150.27;100.00;61272.81;5054941;29;20108;-75
2023/04/16 07:53:25;;;;;;;21.50;13.23;;;;;;;-150.27;100.00;61272.81;5042421;29;20034;-76
2023/04/16 07:55:58;;;;;;;21.03;13.10;;;;;;;-150.27;100.00;61272.81;5046759;29;20034;-76
2023/04/16 07:58:29;;;;;;;23.70;12.87;;;;;;;-150.27;100.00;61272.81;5055313;29;21277;-76
2023/04/16 08:01:01;;;;;;;20.67;13.77;;;;;;;-150.27;100.00;61272.81;5052193;29;20057;-76
2023/04/16 08:03:33;;;;;;;24.87;15.40;;;;;;;-150.27;100.00;61272.81;5050291;29;20710;-74
2023/04/16 08:06:04;;;;;;;29.73;14.90;;;;;;;-150.27;100.00;61272.81;5051307;29;20104;-74
2023/04/16 08:08:36;;;;;;;28.33;15.50;;;;;;;-150.27;100.00;61272.81;5048272;29;20021;-75
2023/04/16 08:11:07;;;;;;;29.93;14.97;;;;;;;-150.27;100.00;61272.81;5050519;29;20029;-75
2023/04/16 08:13:39;;;;;;;22.53;13.73;;;;;;;-150.27;100.00;61272.81;5048613;29;20046;-74
2023/04/16 08:16:10;;;;;;;23.93;14.30;;;;;;;-150.27;100.00;61272.81;5046271;29;20060;-74
2023/04/16 08:18:41;;;;;;;28.33;15.03;;;;;;;-150.27;100.00;61272.81;5037805;29;20538;-75
2023/04/16 08:21:13;;;;;;;25.67;15.50;;;;;;;-150.27;100.00;61272.81;5042248;29;20112;-74
2023/04/16 08:23:44;;;;;;;27.47;14.50;;;;;;;-150.27;100.00;61272.81;5035153;29;20026;-75
2023/04/16 08:26:16;;;;;;;27.43;14.60;;;;;;;-150.27;100.00;61272.81;5040492;29;20045;-73
2023/04/16 08:28:47;;;;;;;28.57;15.00;;;;;;;-150.27;100.00;61272.81;5052240;29;20049;-73
2023/04/16 08:31:18;;;;;;;28.73;15.63;;;;;;;-150.27;100.00;61272.81;5052057;29;20394;-73
2023/04/16 08:33:50;;;;;;;32.47;15.93;;;;;;;-150.27;100.00;61272.81;5049088;29;20042;-74
2023/04/16 08:36:21;;;;;;;24.67;14.07;;;;;;;-150.27;100.00;61272.81;5050761;29;20029;-74
2023/04/16 08:38:53;;;;;;;33.00;16.07;;;;;;;-150.27;100.00;61272.81;5050318;29;20036;-74
2023/04/16 08:41:26;;;;;;;27.47;15.13;;;;;;;-150.27;100.00;61272.81;5035936;29;20527;-74
2023/04/16 08:44:03;;;;;;;26.33;15.20;;;;;;;-150.27;100.00;61272.81;5031869;29;20368;-74
2023/04/16 08:46:36;;;;;;;26.23;15.23;;;;;;;-150.27;100.00;61272.81;5037079;29;20030;-75
2023/04/16 08:49:11;;;;;;;30.40;15.80;;;;;;;-150.27;100.00;61272.81;5051509;29;20108;-75
2023/04/16 08:51:44;;;;;;;;;;;;;;;-150.27;100.00;61272.81;5050742;29;20025;-75
2023/04/16 08:54:25;;;;;;;28.40;16.13;;;;;;;-150.27;100.00;61272.81;5033592;29;19923;-75
2023/04/16 08:56:58;;;;;;;29.10;15.97;;;;;;;-150.27;100.00;61272.81;5051394;29;20033;-75
2023/04/16 08:59:30;;;;;;;31.87;16.43;;;;;;;-150.27;100.00;61272.81;5054222;29;20033;-75
2023/04/16 09:02:01;;;;;;;28.87;15.53;;;;;;;-150.27;100.00;61272.81;5054505;29;20031;-75
2023/04/16 09:04:33;;;;;;;29.00;16.17;;;;;;;-150.27;100.00;61272.81;5054563;29;20542;-75
2023/04/16 09:07:07;;;;;;;29.67;15.47;;;;;;;-150.27;100.00;61272.81;5054544;29;20389;-75
2023/04/16 09:09:39;;;;;;;32.80;16.15;;;;;;;-150.27;100.00;61272.81;5056149;29;20030;-76
2023/04/16 09:12:10;;;;;;;29.00;16.73;;;;;;;-150.27;100.00;61272.81;5048967;29;20029;-75
2023/04/16 09:14:43;;;;;;;27.27;14.77;;;;;;;-150.27;100.00;61272.81;5036861;29;20054;-76
2023/04/16 09:17:15;;;;;;;28.90;14.43;;;;;;;-150.27;100.00;61272.81;5037386;29;20037;-74
2023/04/16 09:19:47;;;;;;;27.10;16.83;;;;;;;-150.27;100.00;61272.81;5037206;29;20026;-74
2023/04/16 09:22:18;;;;;;;27.63;14.57;;;;;;;-150.27;100.00;61272.81;5048394;29;20029;-74
2023/04/16 09:24:50;;;;;;;32.17;16.10;;;;;;;-150.27;100.00;61272.81;5053440;29;20062;-75
2023/04/16 09:27:21;;;;;;;26.67;15.13;;;;;;;-150.27;100.00;61272.81;5053117;29;20037;-75
2023/04/16 09:29:53;;;;;;;29.40;15.73;;;;;;;-150.27;100.00;61272.81;5052479;29;20378;-75
2023/04/16 09:32:26;;;;;;;26.10;15.23;;;;;;;-150.27;100.00;61272.81;5036907;29;20041;-75
2023/04/16 09:35:01;;;;;;;26.40;15.47;;;;;;;-150.27;100.00;61272.81;5053304;29;20017;-75
2023/04/16 09:37:32;;;;;;;30.43;16.03;;;;;;;-150.27;100.00;61272.81;5053650;29;20494;-75
2023/04/16 09:40:04;;;;;;;30.87;15.50;;;;;;;-150.27;100.00;61272.81;5053803;29;20017;-76
2023/04/16 09:42:36;;;;;;;27.27;15.27;;;;;;;-150.27;100.00;61272.81;5035538;29;20025;-75
2023/04/16 09:45:07;;;;;;;27.77;15.33;;;;;;;-150.27;100.00;61272.81;5053757;29;20022;-75
2023/04/16 09:47:43;;;;;;;26.03;15.03;;;;;;;-150.27;100.00;61272.81;5053032;29;20506;-75
2023/04/16 09:50:17;;;;;;;29.13;15.93;;;;;;;-150.27;100.00;61272.81;5036165;29;20069;-75
2023/04/16 09:52:50;;;;;;;33.17;16.37;;;;;;;-150.27;100.00;61272.81;5052949;29;20103;-74
2023/04/16 09:55:22;;;;;;;30.07;15.60;;;;;;;-150.27;100.00;61272.81;5054128;29;20394;-75
2023/04/16 09:58:01;;;;;;;38.10;16.90;;;;;;;-150.27;100.00;61272.81;5052698;29;20474;-75
2023/04/16 10:00:32;;;;;;;24.33;15.10;;;;;;;-150.27;100.00;61272.81;5031228;29;20060;-74
2023/04/16 10:03:04;;;;;;;30.23;15.67;;;;;;;-150.27;100.00;61272.81;5049003;29;20037;-75
2023/04/16 10:05:36;;;;;;;25.47;15.20;;;;;;;-150.27;100.00;61272.81;5052437;29;20033;-75
2023/04/16 10:08:12;;;;;;;22.50;13.77;;;;;;;-150.27;100.00;61272.81;5036498;29;20467;-75
2023/04/16 10:10:44;;;;;;;25.27;15.27;;;;;;;-150.27;100.00;61272.81;5053410;29;20030;-74
2023/04/16 10:13:16;;;;;;;28.63;16.10;;;;;;;-150.27;100.00;61272.81;5052125;29;20553;-74
2023/04/16 10:15:49;;;;;;;26.33;14.50;;;;;;;-150.27;100.00;61272.81;5053286;29;20023;-74
2023/04/16 10:18:21;;;;;;;29.50;16.30;;;;;;;-150.27;100.00;61272.81;5052405;29;20037;-74
2023/04/16 10:20:52;;;;;;;28.87;16.17;;;;;;;-150.27;100.00;61272.81;5053449;29;20033;-75
2023/04/16 10:23:24;;;;;;;22.87;14.60;;;;;;;-150.27;100.00;61272.81;5052630;29;20050;-75
2023/04/16 10:25:57;;;;;;;25.13;15.53;;;;;;;-150.27;100.00;61272.81;5052536;29;20425;-75
2023/04/16 10:28:29;;;;;;;31.93;15.90;;;;;;;-150.27;100.00;61272.81;5051532;29;20057;-75
2023/04/16 10:31:04;;;;;;;24.23;16.33;;;;;;;-150.27;100.00;61272.81;5036130;29;20481;-76
2023/04/16 10:33:39;;;;;;;27.00;15.53;;;;;;;-150.27;100.00;61272.81;5035519;29;20029;-74
2023/04/16 10:36:12;;;;;;;26.77;15.07;;;;;;;-150.27;100.00;61272.81;5052164;29;20034;-75
2023/04/16 10:38:53;;;;;;;26.33;16.10;;;;;;;-150.27;100.00;61272.81;5052515;29;20036;-75
2023/04/16 10:41:26;;;;;;;32.93;17.53;;;;;;;-150.27;100.00;61272.81;5052560;29;20398;-75
2023/04/16 10:44:08;;;;;;;31.80;15.63;;;;;;;-150.27;100.00;61272.81;5052161;29;20332;-74
2023/04/16 10:46:50;;;;;;;27.83;16.70;;;;;;;-150.27;100.00;61272.81;5033905;29;20029;-74
2023/04/16 10:49:21;;;;;;;25.70;15.67;;;;;;;-150.27;100.00;61272.81;5046333;29;20619;-74
2023/04/16 10:51:58;;;;;;;29.77;15.80;;;;;;;-150.27;100.00;61272.81;5052575;29;20030;-75
2023/04/16 10:54:34;;;;;;;28.43;15.90;;;;;;;-150.27;100.00;61272.81;5051711;29;20033;-75
2023/04/16 10:57:11;;;;;;;23.23;14.37;;;;;;;-150.27;100.00;61272.81;5051805;29;20093;-75
2023/04/16 10:59:43;;;;;;;29.23;15.33;;;;;;;-150.27;100.00;61272.81;5041298;29;20120;-75
2023/04/16 11:02:16;;;;;;;22.73;16.00;;;;;;;-150.27;100.00;61272.81;5051765;29;20029;-75
2023/04/16 11:04:48;;;;;;;27.67;15.17;;;;;;;-150.27;100.00;61272.81;5052460;29;20025;-74
2023/04/16 11:07:30;;;;;;;24.67;15.47;;;;;;;-150.27;100.00;61272.81;5035537;29;20394;-75
2023/04/16 11:10:06;;;;;;;26.70;15.80;;;;;;;-150.27;100.00;61272.81;5051205;29;20311;-75
2023/04/16 11:12:39;;;;;;;26.33;15.57;;;;;;;-150.27;100.00;61272.81;5050933;29;20033;-74
2023/04/16 11:15:15;;;;;;;27.17;16.35;;;;;;;-150.27;100.00;61272.81;5052100;29;20142;-75
2023/04/16 11:17:51;;;;;;;28.97;15.87;;;;;;;-150.27;100.00;61272.81;5052016;29;20044;-75
2023/04/16 11:20:24;;;;;;;29.20;16.87;;;;;;;-150.27;100.00;61272.81;5051076;29;20033;-74